createdAt,value
2018-11-29T00:01:16.488Z,6.42
2018-11-29T00:03:47.235Z,6.42
2018-11-29T00:06:37.070Z,6.47
2018-11-29T00:09:09.641Z,6.53
2018-11-29T00:11:40.366Z,6.53
2018-11-29T00:14:11.186Z,6.47
2018-11-29T00:16:41.798Z,6.50
2018-11-29T00:19:12.535Z,6.52
2018-11-29T00:21:43.234Z,6.54
2018-11-29T00:24:13.871Z,6.49
2018-11-29T00:26:44.574Z,6.34
2018-11-29T00:29:15.275Z,6.24
2018-11-29T00:31:45.887Z,6.22
2018-11-29T00:34:16.835Z,6.34
2018-11-29T00:36:47.518Z,6.42
2018-11-29T00:39:18.810Z,6.48
2018-11-29T00:41:49.511Z,6.61
2018-11-29T00:44:20.199Z,6.64
2018-11-29T00:46:50.876Z,6.73
2018-11-29T00:49:21.534Z,6.76
2018-11-29T00:51:52.182Z,6.88
2018-11-29T00:54:22.847Z,6.84
2018-11-29T00:56:53.510Z,6.73
2018-11-29T00:59:24.119Z,6.58
2018-11-29T01:02:03.403Z,6.51
2018-11-29T01:04:34.010Z,6.56
2018-11-29T01:07:06.378Z,6.86
2018-11-29T01:09:36.994Z,7.25
2018-11-29T01:12:07.814Z,7.22
2018-11-29T01:14:38.537Z,7.57
2018-11-29T01:17:11.911Z,7.67
2018-11-29T01:19:42.628Z,7.64
2018-11-29T01:22:13.252Z,7.56
2018-11-29T01:24:43.955Z,7.42
2018-11-29T01:27:14.574Z,7.41
2018-11-29T01:29:46.180Z,7.33
2018-11-29T01:32:16.804Z,7.29
2018-11-29T01:34:47.531Z,7.19
2018-11-29T01:37:18.395Z,7.12
2018-11-29T01:39:49.199Z,7.10
2018-11-29T01:42:19.860Z,7.02
2018-11-29T01:44:50.516Z,6.90
2018-11-29T01:47:21.339Z,6.80
2018-11-29T01:49:52.018Z,6.73
2018-11-29T01:52:22.625Z,6.71
2018-11-29T01:54:53.871Z,6.65
2018-11-29T01:57:24.605Z,6.64
2018-11-29T01:59:56.640Z,6.94
2018-11-29T02:02:27.301Z,7.16
2018-11-29T02:04:57.926Z,7.26
2018-11-29T02:07:29.183Z,7.29
2018-11-29T02:10:04.807Z,7.34
2018-11-29T02:12:35.607Z,7.33
2018-11-29T02:15:07.199Z,7.35
2018-11-29T02:17:37.909Z,7.30
2018-11-29T02:20:16.571Z,7.29
2018-11-29T02:22:48.187Z,7.22
2018-11-29T02:25:19.029Z,7.18
2018-11-29T02:27:49.798Z,7.21
2018-11-29T02:30:23.368Z,7.17
2018-11-29T02:32:54.046Z,7.11
2018-11-29T02:35:24.782Z,7.15
2018-11-29T02:37:55.394Z,7.25
2018-11-29T02:40:26.965Z,7.31
2018-11-29T02:42:57.585Z,7.35
2018-11-29T02:45:28.234Z,7.43
2018-11-29T02:47:58.988Z,7.48
2018-11-29T02:50:29.683Z,7.57
2018-11-29T02:53:00.320Z,7.52
2018-11-29T02:55:32.794Z,7.61
2018-11-29T02:58:04.870Z,7.52
2018-11-29T03:00:35.501Z,7.75
2018-11-29T03:03:08.095Z,7.80
2018-11-29T03:05:38.713Z,7.84
2018-11-29T03:08:09.446Z,7.80
2018-11-29T03:10:40.118Z,7.78
2018-11-29T03:13:10.765Z,7.74
2018-11-29T03:15:41.486Z,7.74
2018-11-29T03:18:12.165Z,7.74
2018-11-29T03:20:43.435Z,7.75
2018-11-29T03:23:14.216Z,7.85
2018-11-29T03:25:44.855Z,7.85
2018-11-29T03:28:15.608Z,7.91
2018-11-29T03:30:46.252Z,7.98
2018-11-29T03:33:16.904Z,8.09
2018-11-29T03:35:47.599Z,8.13
2018-11-29T03:38:19.003Z,8.23
2018-11-29T03:40:49.743Z,8.28
2018-11-29T03:43:20.412Z,8.38
2018-11-29T03:45:51.058Z,8.37
2018-11-29T03:48:21.732Z,8.37
2018-11-29T03:50:52.877Z,8.43
2018-11-29T03:53:23.611Z,8.52
2018-11-29T03:55:54.327Z,8.55
2018-11-29T03:58:24.952Z,8.55
2018-11-29T04:00:55.782Z,8.67
2018-11-29T04:03:26.556Z,8.87
2018-11-29T04:05:57.902Z,8.93
2018-11-29T04:08:29.624Z,9.17
2018-11-29T04:11:00.291Z,9.47
2018-11-29T04:13:32.988Z,9.91
2018-11-29T04:16:07.234Z,10.26
2018-11-29T04:18:38.695Z,10.52
2018-11-29T04:21:09.355Z,10.77
2018-11-29T04:23:40.012Z,10.80
2018-11-29T04:26:10.714Z,11.03
2018-11-29T04:28:41.335Z,11.17
2018-11-29T04:31:12.086Z,11.17
2018-11-29T04:33:42.727Z,11.22
2018-11-29T04:36:13.485Z,11.20
2018-11-29T04:38:44.166Z,11.28
2018-11-29T04:41:15.385Z,11.30
2018-11-29T04:43:46.024Z,11.42
2018-11-29T04:46:48.907Z,11.56
2018-11-29T04:49:20.364Z,11.62
2018-11-29T04:51:51.026Z,11.69
2018-11-29T04:54:21.686Z,11.76
2018-11-29T04:56:52.396Z,11.82
2018-11-29T04:59:23.482Z,11.78
2018-11-29T05:01:55.079Z,11.74
2018-11-29T05:04:25.752Z,11.71
2018-11-29T05:06:56.427Z,11.69
2018-11-29T05:09:27.128Z,11.64
2018-11-29T05:11:58.006Z,11.54
2018-11-29T05:14:28.752Z,11.55
2018-11-29T05:16:59.398Z,11.57
2018-11-29T05:19:30.106Z,11.52
2018-11-29T05:22:00.719Z,11.53
2018-11-29T05:24:33.256Z,11.54
2018-11-29T05:27:06.060Z,11.49
2018-11-29T05:29:36.750Z,11.50
2018-11-29T05:32:07.504Z,11.52
2018-11-29T05:34:38.647Z,11.53
2018-11-29T05:37:09.418Z,11.48
2018-11-29T05:39:40.116Z,11.39
2018-11-29T05:42:10.754Z,11.28
2018-11-29T05:44:41.401Z,11.21
2018-11-29T05:47:12.057Z,11.17
2018-11-29T05:49:49.382Z,11.20
2018-11-29T05:52:20.176Z,11.13
2018-11-29T05:54:50.782Z,11.17
2018-11-29T05:57:21.550Z,11.13
2018-11-29T05:59:52.198Z,11.20
2018-11-29T06:02:22.862Z,11.21
2018-11-29T06:04:53.738Z,11.24
2018-11-29T06:07:24.413Z,11.29
2018-11-29T06:09:55.037Z,11.29
2018-11-29T06:12:25.654Z,11.34
2018-11-29T06:14:56.297Z,11.35
2018-11-29T06:17:26.946Z,11.36
2018-11-29T06:19:57.619Z,11.45
2018-11-29T06:22:28.279Z,11.48
2018-11-29T06:24:58.903Z,11.49
2018-11-29T06:27:29.603Z,11.52
2018-11-29T06:30:00.261Z,11.55
2018-11-29T06:32:33.814Z,11.76
2018-11-29T06:35:04.544Z,11.72
2018-11-29T06:37:35.219Z,11.68
2018-11-29T06:40:09.182Z,11.72
2018-11-29T06:42:39.958Z,11.70
2018-11-29T06:45:11.984Z,11.77
2018-11-29T06:47:42.627Z,11.80
2018-11-29T06:50:14.181Z,11.87
2018-11-29T06:52:45.954Z,11.86
2018-11-29T06:55:20.574Z,11.93
2018-11-29T06:57:51.351Z,11.97
2018-11-29T07:00:27.552Z,12.03
2018-11-29T07:02:58.242Z,12.06
2018-11-29T07:05:29.114Z,12.18
2018-11-29T07:07:59.774Z,12.21
2018-11-29T07:10:32.460Z,12.18
2018-11-29T07:13:07.928Z,12.20
2018-11-29T07:15:39.583Z,12.21
2018-11-29T07:18:10.226Z,12.24
2018-11-29T07:20:40.930Z,12.21
2018-11-29T07:23:12.144Z,12.26
2018-11-29T07:25:43.187Z,12.16
2018-11-29T07:28:13.806Z,12.17
2018-11-29T07:30:44.515Z,12.20
2018-11-29T07:33:15.220Z,12.26
2018-11-29T07:35:45.876Z,12.22
2018-11-29T07:38:16.736Z,12.29
2018-11-29T07:40:47.397Z,12.31
2018-11-29T07:43:18.126Z,12.36
2018-11-29T07:45:49.522Z,12.37
2018-11-29T07:48:20.114Z,12.40
2018-11-29T07:50:50.954Z,12.36
2018-11-29T07:53:21.837Z,12.43
2018-11-29T07:55:52.488Z,12.40
2018-11-29T07:58:23.220Z,12.27
2018-11-29T08:00:53.838Z,12.46
2018-11-29T08:03:31.727Z,12.53
2018-11-29T08:06:04.378Z,12.55
2018-11-29T08:08:36.047Z,12.65
2018-11-29T08:11:07.430Z,12.70
2018-11-29T08:13:38.055Z,12.71
2018-11-29T08:16:09.034Z,12.72
2018-11-29T08:18:39.693Z,12.82
2018-11-29T08:21:10.412Z,12.89
2018-11-29T08:23:44.515Z,12.79
2018-11-29T08:26:15.519Z,12.87
2018-11-29T08:28:46.152Z,12.89
2018-11-29T08:31:16.826Z,12.85
2018-11-29T08:33:48.038Z,12.86
2018-11-29T08:36:18.911Z,12.86
2018-11-29T08:38:49.657Z,12.79
2018-11-29T08:41:20.389Z,12.86
2018-11-29T08:43:51.167Z,12.84
2018-11-29T08:46:22.526Z,12.88
2018-11-29T08:48:53.274Z,12.88
2018-11-29T08:51:23.893Z,12.86
2018-11-29T08:53:54.868Z,12.81
2018-11-29T08:56:26.131Z,12.84
2018-11-29T08:58:56.855Z,12.84
2018-11-29T09:01:28.227Z,12.77
2018-11-29T09:03:59.814Z,12.76
2018-11-29T09:06:30.504Z,12.67
2018-11-29T09:09:04.255Z,12.77
2018-11-29T09:11:35.247Z,12.67
2018-11-29T09:14:05.982Z,12.70
2018-11-29T09:16:36.645Z,12.83
2018-11-29T09:19:07.291Z,12.71
2018-11-29T09:21:38.702Z,12.78
2018-11-29T09:24:09.362Z,12.76
2018-11-29T09:26:40.054Z,12.73
2018-11-29T09:29:11.287Z,12.62
2018-11-29T09:31:42.193Z,12.54
2018-11-29T09:34:13.007Z,12.46
2018-11-29T09:36:43.674Z,12.42
2018-11-29T09:39:14.395Z,12.26
2018-11-29T09:41:45.225Z,12.35
2018-11-29T09:44:15.912Z,12.24
2018-11-29T09:46:46.659Z,12.25
2018-11-29T09:49:17.349Z,12.27
2018-11-29T09:51:48.185Z,12.23
2018-11-29T09:54:18.826Z,12.18
2018-11-29T09:56:49.844Z,12.18
2018-11-29T09:59:20.475Z,12.14
2018-11-29T10:01:51.307Z,12.07
2018-11-29T10:04:21.882Z,12.13
2018-11-29T10:06:53.179Z,12.18
2018-11-29T10:09:23.901Z,12.15
2018-11-29T10:11:54.637Z,12.16
2018-11-29T10:14:25.237Z,12.19
2018-11-29T10:16:55.883Z,12.29
2018-11-29T10:19:26.578Z,12.27
2018-11-29T10:21:57.238Z,12.25
2018-11-29T10:24:27.860Z,12.24
2018-11-29T10:26:58.502Z,12.25
2018-11-29T10:29:29.110Z,12.34
2018-11-29T10:31:59.775Z,12.48
2018-11-29T10:34:30.472Z,12.36
2018-11-29T10:37:03.181Z,12.36
2018-11-29T10:39:33.890Z,12.39
2018-11-29T10:42:05.153Z,12.48
2018-11-29T10:44:35.856Z,12.51
2018-11-29T10:47:08.221Z,12.49
2018-11-29T10:49:39.060Z,12.53
2018-11-29T10:52:09.918Z,12.50
2018-11-29T10:54:40.534Z,12.62
2018-11-29T10:57:11.212Z,12.64
2018-11-29T10:59:41.902Z,12.70
2018-11-29T11:02:20.872Z,12.80
2018-11-29T11:04:58.197Z,12.85
2018-11-29T11:07:34.592Z,12.94
2018-11-29T11:10:27.199Z,12.89
2018-11-29T11:12:57.894Z,12.85
2018-11-29T11:15:29.155Z,12.82
2018-11-29T11:17:59.946Z,12.89
2018-11-29T11:20:33.112Z,12.91
2018-11-29T11:23:07.847Z,12.90
2018-11-29T11:25:38.718Z,13.01
2018-11-29T11:28:10.242Z,12.96
2018-11-29T11:30:42.915Z,12.94
2018-11-29T11:33:14.693Z,13.04
2018-11-29T11:35:49.788Z,13.11
2018-11-29T11:38:21.178Z,13.21
2018-11-29T11:40:51.925Z,13.25
2018-11-29T11:43:22.562Z,13.31
2018-11-29T11:45:56.870Z,13.39
2018-11-29T11:48:35.282Z,13.51
2018-11-29T11:51:09.070Z,13.62
2018-11-29T11:53:39.731Z,13.66
2018-11-29T11:56:10.385Z,13.66
2018-11-29T11:58:41.761Z,13.65
2018-11-29T12:01:12.832Z,13.61
2018-11-29T12:03:43.575Z,13.64
2018-11-29T12:06:14.282Z,13.66
2018-11-29T12:08:44.970Z,13.65
2018-11-29T12:11:15.655Z,13.66
2018-11-29T12:13:46.386Z,13.69
2018-11-29T12:16:17.106Z,13.70
2018-11-29T12:18:47.861Z,13.72
2018-11-29T12:21:19.413Z,13.75
2018-11-29T12:23:50.142Z,13.78
2018-11-29T12:26:21.666Z,13.81
2018-11-29T12:28:52.346Z,13.79
2018-11-29T12:31:23.290Z,13.79
2018-11-29T12:33:53.997Z,13.73
2018-11-29T12:36:24.736Z,13.69
2018-11-29T12:38:55.568Z,13.76
2018-11-29T12:41:26.266Z,13.74
2018-11-29T12:43:57.014Z,13.78
2018-11-29T12:46:27.801Z,13.81
2018-11-29T12:48:58.465Z,13.74
2018-11-29T12:51:29.274Z,13.72
2018-11-29T12:53:59.975Z,13.70
2018-11-29T12:56:34.998Z,13.65
2018-11-29T12:59:06.639Z,13.66
2018-11-29T13:01:37.413Z,13.66
2018-11-29T13:04:08.306Z,13.62
2018-11-29T13:06:39.730Z,13.59
2018-11-29T13:09:11.275Z,13.58
2018-11-29T13:11:42.084Z,13.60
2018-11-29T13:14:12.897Z,13.55
2018-11-29T13:16:43.548Z,13.57
2018-11-29T13:19:14.383Z,13.54
2018-11-29T13:21:45.046Z,13.55
2018-11-29T13:24:15.750Z,13.60
2018-11-29T13:26:46.427Z,13.58
2018-11-29T13:29:17.112Z,13.58
2018-11-29T13:31:47.879Z,13.61
2018-11-29T13:34:18.598Z,13.57
2018-11-29T13:36:50.189Z,13.55
2018-11-29T13:39:20.993Z,13.59
2018-11-29T13:41:51.931Z,13.60
2018-11-29T13:44:22.797Z,13.61
2018-11-29T13:46:53.552Z,13.64
2018-11-29T13:49:24.351Z,13.65
2018-11-29T13:51:55.109Z,13.73
2018-11-29T13:54:25.842Z,13.78
2018-11-29T13:57:01.391Z,13.87
2018-11-29T13:59:35.282Z,14.01
2018-11-29T14:02:08.162Z,14.01
2018-11-29T14:04:38.860Z,13.99
2018-11-29T14:07:10.003Z,14.01
2018-11-29T14:09:40.674Z,13.97
2018-11-29T14:12:11.502Z,13.80
2018-11-29T14:14:42.199Z,13.88
2018-11-29T14:17:13.000Z,13.86
2018-11-29T14:19:43.758Z,13.82
2018-11-29T14:22:14.575Z,13.92
2018-11-29T14:24:45.279Z,13.90
2018-11-29T14:27:16.586Z,13.90
2018-11-29T14:29:47.451Z,14.09
2018-11-29T14:32:18.254Z,14.19
2018-11-29T14:34:51.741Z,14.34
2018-11-29T14:37:19.898Z,14.36
2018-11-29T14:39:50.606Z,14.41
2018-11-29T14:42:21.417Z,14.37
2018-11-29T14:44:52.141Z,14.32
2018-11-29T14:47:22.926Z,14.35
2018-11-29T14:49:53.657Z,14.31
2018-11-29T14:52:24.345Z,14.31
2018-11-29T14:54:55.165Z,14.33
2018-11-29T14:57:25.882Z,14.40
2018-11-29T14:59:56.634Z,14.46
2018-11-29T15:02:27.312Z,14.48
2018-11-29T15:04:58.016Z,14.41
2018-11-29T15:07:28.687Z,14.47
2018-11-29T15:09:59.406Z,14.51
2018-11-29T15:12:30.071Z,14.63
2018-11-29T15:15:00.825Z,14.71
2018-11-29T15:17:34.798Z,14.87
2018-11-29T15:20:20.293Z,15.08
2018-11-29T15:22:51.003Z,15.20
2018-11-29T15:25:21.774Z,15.46
2018-11-29T15:27:52.460Z,15.24
2018-11-29T15:30:24.415Z,15.23
2018-11-29T15:32:55.131Z,15.02
2018-11-29T15:35:25.897Z,14.88
2018-11-29T15:37:56.645Z,14.87
2018-11-29T15:40:27.327Z,14.84
2018-11-29T15:42:58.045Z,14.73
2018-11-29T15:45:29.603Z,14.69
2018-11-29T15:48:00.326Z,14.67
2018-11-29T15:50:34.753Z,14.52
2018-11-29T15:53:07.310Z,14.47
2018-11-29T15:55:37.998Z,14.51
2018-11-29T15:58:08.739Z,14.40
2018-11-29T16:00:39.562Z,14.36
2018-11-29T16:03:11.209Z,14.27
2018-11-29T16:05:41.905Z,14.25
2018-11-29T16:08:12.714Z,14.20
2018-11-29T16:10:43.416Z,14.23
2018-11-29T16:13:14.124Z,14.36
2018-11-29T16:15:44.886Z,14.26
2018-11-29T16:18:15.646Z,14.24
2018-11-29T16:20:47.013Z,14.13
2018-11-29T16:23:17.694Z,14.07
2018-11-29T16:25:48.585Z,14.07
2018-11-29T16:28:19.282Z,13.98
2018-11-29T16:30:53.266Z,13.85
2018-11-29T16:33:26.409Z,13.74
2018-11-29T16:35:57.162Z,13.66
2018-11-29T16:38:27.900Z,13.71
2018-11-29T16:40:58.654Z,13.66
2018-11-29T16:43:29.388Z,13.55
2018-11-29T16:46:01.015Z,13.47
2018-11-29T16:48:34.711Z,13.32
2018-11-29T16:51:05.603Z,13.24
2018-11-29T16:53:36.316Z,13.08
2018-11-29T16:56:07.184Z,12.97
2018-11-29T16:58:37.898Z,12.86
2018-11-29T17:01:09.518Z,12.83
2018-11-29T17:03:40.548Z,12.73
2018-11-29T17:06:11.339Z,12.59
2018-11-29T17:08:42.076Z,12.47
2018-11-29T17:11:12.826Z,12.40
2018-11-29T17:13:43.526Z,12.35
2018-11-29T17:16:14.285Z,12.29
2018-11-29T17:18:44.985Z,12.21
2018-11-29T17:21:15.716Z,12.07
2018-11-29T17:24:00.046Z,11.97
2018-11-29T17:26:35.035Z,11.89
2018-11-29T17:29:06.316Z,11.82
2018-11-29T17:31:37.122Z,11.79
2018-11-29T17:34:15.029Z,11.73
2018-11-29T17:36:46.479Z,11.67
2018-11-29T17:39:17.214Z,11.57
2018-11-29T17:41:47.950Z,11.48
2018-11-29T17:44:19.199Z,11.40
2018-11-29T17:46:49.926Z,11.40
2018-11-29T17:49:20.615Z,11.37
2018-11-29T17:51:53.703Z,11.24
2018-11-29T17:54:22.112Z,11.22
2018-11-29T17:56:52.911Z,11.17
2018-11-29T17:59:23.584Z,11.13
2018-11-29T18:01:54.831Z,11.08
2018-11-29T18:04:26.331Z,11.00
2018-11-29T18:06:56.989Z,10.95
2018-11-29T18:09:27.804Z,10.93
2018-11-29T18:11:59.296Z,11.04
2018-11-29T18:14:30.042Z,10.95
2018-11-29T18:17:00.723Z,10.87
2018-11-29T18:19:39.313Z,10.85
2018-11-29T18:22:10.021Z,10.81
2018-11-29T18:24:41.322Z,10.79
2018-11-29T18:27:12.014Z,10.71
2018-11-29T18:29:42.860Z,10.74
2018-11-29T18:32:13.542Z,10.80
2018-11-29T18:34:44.215Z,10.86
2018-11-29T18:37:14.842Z,10.88
2018-11-29T18:39:45.539Z,10.84
2018-11-29T18:42:24.023Z,10.87
2018-11-29T18:44:55.336Z,10.80
2018-11-29T18:47:25.970Z,10.74
2018-11-29T18:49:56.715Z,10.66
2018-11-29T18:52:27.365Z,10.69
2018-11-29T18:54:58.685Z,10.65
2018-11-29T18:57:29.319Z,10.71
2018-11-29T18:59:59.996Z,10.62
2018-11-29T19:02:35.465Z,10.71
2018-11-29T19:05:06.900Z,10.74
2018-11-29T19:07:38.072Z,10.59
2018-11-29T19:10:14.241Z,10.60
2018-11-29T19:12:51.122Z,10.68
2018-11-29T19:15:21.837Z,10.64
2018-11-29T19:17:52.468Z,10.72
2018-11-29T19:20:23.210Z,10.79
2018-11-29T19:22:53.983Z,10.77
2018-11-29T19:25:25.800Z,10.83
2018-11-29T19:27:56.474Z,10.91
2018-11-29T19:30:28.661Z,10.99
2018-11-29T19:33:09.414Z,10.99
2018-11-29T19:35:40.879Z,10.89
2018-11-29T19:38:12.608Z,10.91
2018-11-29T19:40:43.388Z,10.93
2018-11-29T19:43:14.042Z,11.00
2018-11-29T19:45:44.736Z,11.01
2018-11-29T19:48:16.162Z,11.14
2018-11-29T19:50:46.878Z,11.22
2018-11-29T19:53:21.950Z,11.26
2018-11-29T19:55:57.334Z,11.25
2018-11-29T19:58:28.230Z,11.32
2018-11-29T20:00:59.270Z,11.29
2018-11-29T20:03:30.049Z,11.24
2018-11-29T20:06:00.795Z,11.28
2018-11-29T20:08:33.722Z,11.34
2018-11-29T20:11:06.418Z,11.17
2018-11-29T20:13:37.094Z,11.24
2018-11-29T20:16:08.230Z,11.29
2018-11-29T20:18:38.967Z,11.26
2018-11-29T20:21:09.840Z,11.29
2018-11-29T20:23:40.594Z,11.26
2018-11-29T20:26:11.312Z,11.19
2018-11-29T20:28:43.340Z,11.13
2018-11-29T20:31:14.086Z,11.24
2018-11-29T20:33:44.782Z,11.11
2018-11-29T20:36:15.626Z,11.13
2018-11-29T20:38:47.540Z,11.11
2018-11-29T20:41:18.548Z,11.17
2018-11-29T20:43:49.419Z,11.01
2018-11-29T20:46:19.960Z,10.95
2018-11-29T20:48:50.796Z,11.00
2018-11-29T20:51:21.514Z,11.14
2018-11-29T20:53:53.055Z,11.03
2018-11-29T20:56:24.044Z,11.03
2018-11-29T20:58:55.303Z,11.04
2018-11-29T21:01:26.001Z,11.16
2018-11-29T21:03:56.682Z,11.17
2018-11-29T21:06:27.396Z,11.13
2018-11-29T21:08:58.927Z,11.01
2018-11-29T21:11:35.331Z,10.84
2018-11-29T21:14:06.438Z,10.80
2018-11-29T21:16:37.137Z,10.77
2018-11-29T21:19:08.169Z,10.73
2018-11-29T21:21:39.061Z,10.82
2018-11-29T21:24:09.768Z,10.78
2018-11-29T21:26:40.452Z,10.88
2018-11-29T21:29:11.967Z,10.82
2018-11-29T21:31:42.676Z,10.78
2018-11-29T21:34:13.403Z,10.82
2018-11-29T21:36:44.143Z,10.81
2018-11-29T21:39:14.822Z,10.81
2018-11-29T21:41:45.770Z,10.94
2018-11-29T21:44:16.886Z,10.95
2018-11-29T21:46:47.515Z,10.98
2018-11-29T21:49:18.379Z,11.01
2018-11-29T21:51:49.783Z,11.12
2018-11-29T21:54:20.460Z,11.01
2018-11-29T21:56:51.148Z,11.00
2018-11-29T21:59:21.807Z,11.06
2018-11-29T22:01:52.420Z,10.97
2018-11-29T22:04:23.078Z,10.87
2018-11-29T22:06:53.695Z,10.90
2018-11-29T22:09:24.422Z,10.90
2018-11-29T22:11:55.121Z,10.96
2018-11-29T22:14:25.877Z,10.97
2018-11-29T22:16:56.514Z,11.04
2018-11-29T22:19:27.240Z,11.01
2018-11-29T22:21:57.939Z,10.98
2018-11-29T22:24:29.434Z,10.99
2018-11-29T22:27:00.119Z,11.04
2018-11-29T22:29:33.422Z,11.08
2018-11-29T22:32:08.316Z,11.08
2018-11-29T22:34:38.956Z,11.09
2018-11-29T22:37:09.674Z,11.16
2018-11-29T22:39:40.362Z,11.01
2018-11-29T22:42:11.150Z,11.06
2018-11-29T22:44:41.826Z,11.04
2018-11-29T22:47:12.746Z,11.00
2018-11-29T22:49:43.808Z,11.07
2018-11-29T22:52:14.544Z,11.13
2018-11-29T22:54:45.674Z,11.18
2018-11-29T22:57:17.483Z,11.14
2018-11-29T22:59:48.122Z,11.04
2018-11-29T23:02:18.800Z,11.10
2018-11-29T23:04:50.033Z,11.12
2018-11-29T23:07:20.715Z,11.11
2018-11-29T23:09:51.394Z,11.02
2018-11-29T23:12:25.161Z,11.04
2018-11-29T23:14:55.791Z,10.98
2018-11-29T23:17:26.668Z,10.86
2018-11-29T23:19:57.351Z,10.76
2018-11-29T23:22:28.602Z,10.74
2018-11-29T23:24:59.378Z,10.74
2018-11-29T23:27:30.859Z,10.70
2018-11-29T23:30:06.427Z,10.78
2018-11-29T23:32:39.989Z,10.76
2018-11-29T23:35:12.029Z,10.68
2018-11-29T23:37:43.439Z,10.65
2018-11-29T23:40:17.373Z,10.65
2018-11-29T23:42:48.161Z,10.70
2018-11-29T23:45:19.031Z,10.78
2018-11-29T23:47:49.833Z,10.80
2018-11-29T23:50:20.551Z,10.81
2018-11-29T23:52:53.352Z,10.82
2018-11-29T23:55:24.216Z,10.76
2018-11-29T23:57:54.866Z,10.83
